createdAt,value
2018-02-24T00:00:23.401Z,20.20
2018-02-24T00:02:51.880Z,20.20
2018-02-24T00:05:19.440Z,20.20
2018-02-24T00:07:46.944Z,20.20
2018-02-24T00:10:15.209Z,20.20
2018-02-24T00:12:44.690Z,20.20
2018-02-24T00:15:12.201Z,20.20
2018-02-24T00:17:39.725Z,20.20
2018-02-24T00:20:07.221Z,20.30
2018-02-24T00:22:42.504Z,20.20
2018-02-24T00:25:10.076Z,20.20
2018-02-24T00:27:38.544Z,20.20
2018-02-24T00:30:06.073Z,20.20
2018-02-24T00:32:33.573Z,20.30
2018-02-24T00:35:01.076Z,20.30
2018-02-24T00:37:28.601Z,20.30
2018-02-24T00:39:56.873Z,20.30
2018-02-24T00:42:25.173Z,20.30
2018-02-24T00:44:52.676Z,20.30
2018-02-24T00:47:20.203Z,20.30
2018-02-24T00:49:47.707Z,20.30
2018-02-24T00:52:15.214Z,20.30
2018-02-24T00:54:43.701Z,20.30
2018-02-24T00:57:11.199Z,20.30
2018-02-24T00:59:38.732Z,20.30
2018-02-24T01:02:06.234Z,20.30
2018-02-24T01:04:34.513Z,20.30
2018-02-24T01:07:02.806Z,20.30
2018-02-24T01:09:30.310Z,20.40
2018-02-24T01:11:57.856Z,20.30
2018-02-24T01:14:25.387Z,20.40
2018-02-24T01:16:53.571Z,20.30
2018-02-24T01:19:21.129Z,20.40
2018-02-24T01:21:48.628Z,20.40
2018-02-24T01:24:18.095Z,20.40
2018-02-24T01:26:45.671Z,20.40
2018-02-24T01:29:14.124Z,20.40
2018-02-24T01:31:41.651Z,20.40
2018-02-24T01:34:11.018Z,20.40
2018-02-24T01:36:38.550Z,20.40
2018-02-24T01:39:06.134Z,20.50
2018-02-24T01:41:33.668Z,20.40
2018-02-24T01:44:01.169Z,20.40
2018-02-24T01:46:29.456Z,20.50
2018-02-24T01:48:57.725Z,20.50
2018-02-24T01:51:26.001Z,20.50
2018-02-24T01:53:54.297Z,20.50
2018-02-24T01:56:21.816Z,20.50
2018-02-24T01:58:49.340Z,20.50
2018-02-24T02:01:16.851Z,20.50
2018-02-24T02:03:45.140Z,20.50
2018-02-24T02:06:12.636Z,20.50
2018-02-24T02:08:40.148Z,20.50
2018-02-24T02:11:08.428Z,20.50
2018-02-24T02:13:35.957Z,20.50
2018-02-24T02:16:04.262Z,20.50
2018-02-24T02:18:31.768Z,20.50
2018-02-24T02:20:59.269Z,20.50
2018-02-24T02:23:28.749Z,20.50
2018-02-24T02:25:56.254Z,20.50
2018-02-24T02:28:23.773Z,20.50
2018-02-24T02:30:52.066Z,20.50
2018-02-24T02:33:19.581Z,20.50
2018-02-24T02:35:47.088Z,20.50
2018-02-24T02:38:16.552Z,20.60
2018-02-24T02:40:44.838Z,20.60
2018-02-24T02:43:13.133Z,20.50
2018-02-24T02:45:41.597Z,20.50
2018-02-24T02:48:09.146Z,20.60
2018-02-24T02:50:37.428Z,20.50
2018-02-24T02:53:05.705Z,20.60
2018-02-24T02:55:33.996Z,20.50
2018-02-24T02:58:01.496Z,20.50
2018-02-24T03:00:29.026Z,20.50
2018-02-24T03:02:56.569Z,20.60
2018-02-24T03:05:24.093Z,20.60
2018-02-24T03:07:51.589Z,20.60
2018-02-24T03:10:19.095Z,20.60
2018-02-24T03:12:46.617Z,20.50
2018-02-24T03:15:14.113Z,20.60
2018-02-24T03:17:41.638Z,20.60
2018-02-24T03:20:09.137Z,20.60
2018-02-24T03:22:38.164Z,20.50
2018-02-24T03:25:05.660Z,20.60
2018-02-24T03:27:33.166Z,20.60
2018-02-24T03:30:01.450Z,20.60
2018-02-24T03:32:28.949Z,20.60
2018-02-24T03:34:56.480Z,20.60
2018-02-24T03:37:23.981Z,20.60
2018-02-24T03:39:51.504Z,20.60
2018-02-24T03:42:19.964Z,20.60
2018-02-24T03:44:47.464Z,20.60
2018-02-24T03:47:14.997Z,20.60
2018-02-24T03:49:42.489Z,20.60
2018-02-24T03:52:10.013Z,20.60
2018-02-24T03:54:38.450Z,20.60
2018-02-24T03:57:06.737Z,20.60
2018-02-24T03:59:34.243Z,20.60
2018-02-24T04:02:01.753Z,20.60
2018-02-24T04:04:29.272Z,20.60
2018-02-24T04:06:56.772Z,20.60
2018-02-24T04:09:26.228Z,20.60
2018-02-24T04:11:53.733Z,20.60
2018-02-24T04:14:21.283Z,20.60
2018-02-24T04:16:48.804Z,20.60
2018-02-24T04:19:16.305Z,20.60
2018-02-24T04:21:43.833Z,20.60
2018-02-24T04:24:12.101Z,20.60
2018-02-24T04:26:42.355Z,20.70
2018-02-24T04:29:09.873Z,20.60
2018-02-24T04:31:37.417Z,20.70
2018-02-24T04:34:05.021Z,20.70
2018-02-24T04:36:33.285Z,20.70
2018-02-24T04:39:01.577Z,20.70
2018-02-24T04:41:29.081Z,20.60
2018-02-24T04:43:56.608Z,20.60
2018-02-24T04:46:24.116Z,20.70
2018-02-24T04:48:52.400Z,20.70
2018-02-24T04:51:20.665Z,20.70
2018-02-24T04:53:48.952Z,20.70
2018-02-24T04:56:19.235Z,20.70
2018-02-24T04:58:46.745Z,20.70
2018-02-24T05:01:15.033Z,20.70
2018-02-24T05:03:42.583Z,20.70
2018-02-24T05:06:12.021Z,20.70
2018-02-24T05:08:39.524Z,20.70
2018-02-24T05:11:07.796Z,20.70
2018-02-24T05:13:35.317Z,20.70
2018-02-24T05:16:02.818Z,20.70
2018-02-24T05:18:31.118Z,20.70
2018-02-24T05:20:58.616Z,20.70
2018-02-24T05:23:26.142Z,20.70
2018-02-24T05:25:53.646Z,20.70
2018-02-24T05:28:21.145Z,20.70
2018-02-24T05:30:50.607Z,20.70
2018-02-24T05:33:19.617Z,20.70
2018-02-24T05:35:47.925Z,20.70
2018-02-24T05:38:15.432Z,20.70
2018-02-24T05:40:44.757Z,20.70
2018-02-24T05:43:13.024Z,20.70
2018-02-24T05:45:41.317Z,20.70
2018-02-24T05:48:08.841Z,20.70
2018-02-24T05:50:36.341Z,20.70
2018-02-24T05:53:03.880Z,20.70
2018-02-24T05:55:31.392Z,20.70
2018-02-24T05:57:58.929Z,20.70
2018-02-24T06:00:26.441Z,20.70
2018-02-24T06:02:55.677Z,20.70
2018-02-24T06:05:23.200Z,20.60
2018-02-24T06:07:51.465Z,20.70
2018-02-24T06:10:19.758Z,20.70
2018-02-24T06:12:47.279Z,20.60
2018-02-24T06:15:14.816Z,20.70
2018-02-24T06:17:42.314Z,20.70
2018-02-24T06:20:10.588Z,20.60
2018-02-24T06:22:38.885Z,20.60
2018-02-24T06:25:06.392Z,20.60
2018-02-24T06:27:33.930Z,20.60
2018-02-24T06:30:01.441Z,20.60
2018-02-24T06:32:28.969Z,20.60
2018-02-24T06:34:56.504Z,20.60
2018-02-24T06:37:24.008Z,20.60
2018-02-24T06:39:53.252Z,20.60
2018-02-24T06:42:20.763Z,20.60
2018-02-24T06:44:49.057Z,20.60
2018-02-24T06:47:17.524Z,20.60
2018-02-24T06:49:45.793Z,20.60
2018-02-24T06:52:14.102Z,20.60
2018-02-24T06:54:41.624Z,20.60
2018-02-24T06:57:09.921Z,20.60
2018-02-24T06:59:37.453Z,20.60
2018-02-24T07:02:05.761Z,20.60
2018-02-24T07:04:33.269Z,20.60
2018-02-24T07:07:00.777Z,20.60
2018-02-24T07:09:28.304Z,20.60
2018-02-24T07:11:56.570Z,20.60
2018-02-24T07:14:24.112Z,20.60
2018-02-24T07:16:51.617Z,20.60
2018-02-24T07:19:19.152Z,20.60
2018-02-24T07:21:47.422Z,20.60
2018-02-24T07:24:15.732Z,20.60
2018-02-24T07:26:44.005Z,20.60
2018-02-24T07:29:11.509Z,20.60
2018-02-24T07:31:39.041Z,20.60
2018-02-24T07:34:06.546Z,20.60
2018-02-24T07:36:34.842Z,20.60
2018-02-24T07:39:02.349Z,20.60
2018-02-24T07:41:29.861Z,20.60
2018-02-24T07:43:57.385Z,20.60
2018-02-24T07:46:25.661Z,20.60
2018-02-24T07:48:53.954Z,20.60
2018-02-24T07:51:22.275Z,20.60
2018-02-24T07:53:49.800Z,20.60
2018-02-24T07:56:17.310Z,20.60
2018-02-24T07:58:44.818Z,20.60
2018-02-24T08:01:13.337Z,20.60
2018-02-24T08:03:41.810Z,20.60
2018-02-24T08:06:09.408Z,20.60
2018-02-24T08:08:37.677Z,20.60
2018-02-24T08:11:05.970Z,20.60
2018-02-24T08:13:34.258Z,20.60
2018-02-24T08:16:02.729Z,20.60
2018-02-24T08:18:31.017Z,20.60
2018-02-24T08:20:59.485Z,20.60
2018-02-24T08:23:27.008Z,20.60
2018-02-24T08:25:54.508Z,20.60
2018-02-24T08:28:22.044Z,20.60
2018-02-24T08:30:50.313Z,20.60
2018-02-24T08:33:19.874Z,20.60
2018-02-24T08:35:47.401Z,20.60
2018-02-24T08:38:14.901Z,20.60
2018-02-24T08:40:44.382Z,20.60
2018-02-24T08:43:12.027Z,20.60
2018-02-24T08:45:39.576Z,20.60
2018-02-24T08:48:07.077Z,20.60
2018-02-24T08:50:36.565Z,20.60
2018-02-24T08:53:04.993Z,20.60
2018-02-24T08:55:32.496Z,20.60
2018-02-24T08:58:00.076Z,20.60
2018-02-24T09:00:28.490Z,20.60
2018-02-24T09:02:56.784Z,20.60
2018-02-24T09:05:26.736Z,20.60
2018-02-24T09:07:54.773Z,20.60
2018-02-24T09:10:22.277Z,20.60
2018-02-24T09:12:51.757Z,20.60
2018-02-24T09:15:20.181Z,20.60
2018-02-24T09:17:48.486Z,20.60
2018-02-24T09:20:16.023Z,20.60
2018-02-24T09:22:44.316Z,20.60
2018-02-24T09:25:11.813Z,20.60
2018-02-24T09:27:41.304Z,20.60
2018-02-24T09:30:08.838Z,20.60
2018-02-24T09:32:36.353Z,20.60
2018-02-24T09:35:04.636Z,20.70
2018-02-24T09:37:32.958Z,20.70
2018-02-24T09:40:00.492Z,20.60
2018-02-24T09:42:28.808Z,20.70
2018-02-24T09:44:56.316Z,20.60
2018-02-24T09:47:24.615Z,20.70
2018-02-24T09:49:52.137Z,20.60
2018-02-24T09:52:20.939Z,20.70
2018-02-24T09:54:48.497Z,20.70
2018-02-24T09:57:16.773Z,20.70
2018-02-24T09:59:45.042Z,20.70
2018-02-24T10:02:13.336Z,20.70
2018-02-24T10:04:41.851Z,20.70
2018-02-24T10:07:09.389Z,20.70
2018-02-24T10:09:36.899Z,20.70
2018-02-24T10:12:05.536Z,20.70
2018-02-24T10:14:33.132Z,20.70
2018-02-24T10:17:00.755Z,20.70
2018-02-24T10:19:28.270Z,20.70
2018-02-24T10:21:57.919Z,20.70
2018-02-24T10:24:25.481Z,20.70
2018-02-24T10:26:53.021Z,20.70
2018-02-24T10:29:20.530Z,20.70
2018-02-24T10:31:48.043Z,20.70
2018-02-24T10:34:15.676Z,20.70
2018-02-24T10:36:43.386Z,20.70
2018-02-24T10:39:10.966Z,20.70
2018-02-24T10:41:38.473Z,20.70
2018-02-24T10:44:06.028Z,20.70
2018-02-24T10:46:33.540Z,20.70
2018-02-24T10:49:12.800Z,20.70
2018-02-24T10:51:41.085Z,20.70
2018-02-24T10:54:08.606Z,20.70
2018-02-24T10:56:36.133Z,20.70
2018-02-24T10:59:03.630Z,20.70
2018-02-24T11:01:31.153Z,20.70
2018-02-24T11:03:58.660Z,20.70
2018-02-24T11:06:26.970Z,20.80
2018-02-24T11:08:54.465Z,20.70
2018-02-24T11:11:22.777Z,20.70
2018-02-24T11:13:51.064Z,20.80
2018-02-24T11:16:18.565Z,20.80
2018-02-24T11:18:46.094Z,20.80
2018-02-24T11:21:13.609Z,20.80
2018-02-24T11:23:41.910Z,20.90
2018-02-24T11:26:09.432Z,20.90
2018-02-24T11:28:36.961Z,20.90
2018-02-24T11:31:04.490Z,20.90
2018-02-24T11:33:31.996Z,20.90
2018-02-24T11:35:59.521Z,20.80
2018-02-24T11:38:27.029Z,20.80
2018-02-24T11:40:55.321Z,20.80
2018-02-24T11:43:22.848Z,20.80
2018-02-24T11:48:24.777Z,20.90
2018-02-24T11:50:54.310Z,20.90
2018-02-24T11:53:21.821Z,20.90
2018-02-24T11:55:49.366Z,20.90
2018-02-24T11:58:18.590Z,20.90
2018-02-24T12:00:46.097Z,20.90
2018-02-24T12:03:13.621Z,20.90
2018-02-24T12:05:42.078Z,20.90
2018-02-24T12:08:09.670Z,20.90
2018-02-24T12:10:37.181Z,20.90
2018-02-24T12:13:04.724Z,20.90
2018-02-24T12:15:33.001Z,20.90
2018-02-24T12:18:01.276Z,20.90
2018-02-24T12:20:29.579Z,20.90
2018-02-24T12:22:58.005Z,20.90
2018-02-24T12:25:25.538Z,20.90
2018-02-24T12:27:53.059Z,20.90
2018-02-24T12:30:22.290Z,21.00
2018-02-24T12:32:49.834Z,21.00
2018-02-24T12:35:17.341Z,21.00
2018-02-24T12:37:44.884Z,21.00
2018-02-24T12:40:12.409Z,20.90
2018-02-24T12:42:39.937Z,21.00
2018-02-24T12:45:08.211Z,21.00
2018-02-24T12:47:36.484Z,21.00
2018-02-24T12:50:04.797Z,21.00
2018-02-24T12:52:32.321Z,21.00
2018-02-24T12:55:00.621Z,21.00
2018-02-24T12:57:28.137Z,21.00
2018-02-24T12:59:56.435Z,20.90
2018-02-24T13:02:24.013Z,21.00
2018-02-24T13:04:51.520Z,20.90
2018-02-24T13:07:21.777Z,21.00
2018-02-24T13:09:49.302Z,20.90
2018-02-24T13:12:16.833Z,21.00
2018-02-24T13:14:44.342Z,21.00
2018-02-24T13:17:11.876Z,21.00
2018-02-24T13:19:40.170Z,21.00
2018-02-24T13:22:08.462Z,20.90
2018-02-24T13:24:35.969Z,20.90
2018-02-24T13:27:04.010Z,20.90
2018-02-24T13:29:32.489Z,20.90
2018-02-24T13:31:59.993Z,20.90
2018-02-24T13:34:27.525Z,20.90
2018-02-24T13:36:55.059Z,20.90
2018-02-24T13:39:22.609Z,20.90
2018-02-24T13:41:50.114Z,20.90
2018-02-24T13:44:17.619Z,20.90
2018-02-24T13:46:45.179Z,20.90
2018-02-24T13:49:12.676Z,20.90
2018-02-24T13:51:40.195Z,20.90
2018-02-24T13:54:08.638Z,20.90
2018-02-24T13:56:36.933Z,20.90
2018-02-24T13:59:04.421Z,20.90
2018-02-24T14:01:32.902Z,20.90
2018-02-24T14:04:01.322Z,20.90
2018-02-24T14:06:29.620Z,20.90
2018-02-24T14:08:59.106Z,20.90
2018-02-24T14:11:27.381Z,20.90
2018-02-24T14:13:55.672Z,20.80
2018-02-24T14:16:23.169Z,20.80
2018-02-24T14:18:50.677Z,20.90
2018-02-24T14:21:18.993Z,20.80
2018-02-24T14:23:46.494Z,20.90
2018-02-24T14:26:14.841Z,20.80
2018-02-24T14:28:43.303Z,20.80
2018-02-24T14:31:11.750Z,20.80
2018-02-24T14:33:40.018Z,20.90
2018-02-24T14:36:08.294Z,20.80
2018-02-24T14:38:36.585Z,20.80
2018-02-24T14:41:04.114Z,20.80
2018-02-24T14:43:32.409Z,20.80
2018-02-24T14:46:00.677Z,20.80
2018-02-24T14:48:28.983Z,20.80
2018-02-24T14:50:56.506Z,20.80
2018-02-24T14:53:24.806Z,20.80
2018-02-24T14:55:52.336Z,20.80
2018-02-24T14:58:20.609Z,20.80
2018-02-24T15:00:48.896Z,20.80
2018-02-24T15:03:17.173Z,20.80
2018-02-24T15:05:45.480Z,20.80
2018-02-24T15:08:13.074Z,20.80
2018-02-24T15:10:40.605Z,20.80
2018-02-24T15:13:09.040Z,20.80
2018-02-24T15:15:37.404Z,20.80
2018-02-24T15:18:05.673Z,20.80
2018-02-24T15:20:33.977Z,20.80
2018-02-24T15:23:01.498Z,20.80
2018-02-24T15:25:29.035Z,20.80
2018-02-24T15:27:56.538Z,20.80
2018-02-24T15:30:24.802Z,20.80
2018-02-24T15:32:53.224Z,20.70
2018-02-24T15:35:20.730Z,20.80
2018-02-24T15:37:48.258Z,20.80
2018-02-24T15:40:15.805Z,20.80
2018-02-24T15:42:43.301Z,20.70
2018-02-24T15:45:10.817Z,20.80
2018-02-24T15:47:38.325Z,20.80
2018-02-24T15:50:06.615Z,20.70
2018-02-24T15:52:34.885Z,20.80
2018-02-24T15:55:03.160Z,20.80
2018-02-24T15:57:31.444Z,20.80
2018-02-24T15:59:59.710Z,20.80
2018-02-24T16:02:28.005Z,20.80
2018-02-24T16:04:55.505Z,20.70
2018-02-24T16:07:23.030Z,20.80
2018-02-24T16:09:50.528Z,20.80
2018-02-24T16:12:18.254Z,20.70
2018-02-24T16:14:45.795Z,20.70
2018-02-24T16:17:13.309Z,20.70
2018-02-24T16:19:42.778Z,20.70
2018-02-24T16:22:10.350Z,20.70
2018-02-24T16:24:37.833Z,20.70
2018-02-24T16:27:06.121Z,20.70
2018-02-24T16:29:34.419Z,20.70
2018-02-24T16:32:01.933Z,20.70
2018-02-24T16:34:29.433Z,20.70
2018-02-24T16:36:56.949Z,20.70
2018-02-24T16:39:24.445Z,20.70
2018-02-24T16:41:51.978Z,20.70
2018-02-24T16:44:20.245Z,20.70
2018-02-24T16:46:48.540Z,20.70
2018-02-24T16:49:16.821Z,20.70
2018-02-24T16:51:46.320Z,20.70
2018-02-24T16:54:14.590Z,20.70
2018-02-24T16:56:42.869Z,20.60
2018-02-24T16:59:11.159Z,20.70
2018-02-24T17:01:38.660Z,20.60
2018-02-24T17:04:08.141Z,20.70
2018-02-24T17:06:35.634Z,20.70
2018-02-24T17:09:03.147Z,20.70
2018-02-24T17:11:30.697Z,20.60
2018-02-24T17:13:58.222Z,20.60
2018-02-24T17:16:26.508Z,20.60
2018-02-24T17:18:54.817Z,20.60
2018-02-24T17:21:24.307Z,20.60
2018-02-24T17:23:52.737Z,20.60
2018-02-24T17:26:20.262Z,20.60
2018-02-24T17:28:47.757Z,20.60
2018-02-24T17:31:15.272Z,20.60
2018-02-24T17:33:42.774Z,20.60
2018-02-24T17:36:11.049Z,20.60
2018-02-24T17:38:39.365Z,20.60
2018-02-24T17:41:08.518Z,20.60
2018-02-24T17:43:36.034Z,20.60
2018-02-24T17:46:03.530Z,20.60
2018-02-24T17:48:31.037Z,20.60
2018-02-24T17:50:59.845Z,20.60
2018-02-24T17:53:28.162Z,20.60
2018-02-24T17:55:56.464Z,20.60
2018-02-24T17:58:23.975Z,20.60
2018-02-24T18:00:51.502Z,20.60
2018-02-24T18:03:19.004Z,20.60
2018-02-24T18:05:47.265Z,20.60
2018-02-24T18:08:14.797Z,20.60
2018-02-24T18:10:42.306Z,20.50
2018-02-24T18:13:10.597Z,20.50
2018-02-24T18:15:39.060Z,20.50
2018-02-24T18:18:07.401Z,20.50
2018-02-24T18:20:34.852Z,20.50
2018-02-24T18:23:02.449Z,20.50
2018-02-24T18:25:29.968Z,20.50
2018-02-24T18:27:57.476Z,20.50
2018-02-24T18:30:25.058Z,20.50
2018-02-24T18:32:53.507Z,20.50
2018-02-24T18:35:21.794Z,20.50
2018-02-24T18:37:49.293Z,20.50
2018-02-24T18:40:18.769Z,20.50
2018-02-24T18:42:46.265Z,20.50
2018-02-24T18:45:13.774Z,20.50
2018-02-24T18:47:41.293Z,20.50
2018-02-24T18:50:09.694Z,20.50
2018-02-24T18:52:37.984Z,20.50
2018-02-24T18:55:05.545Z,20.50
2018-02-24T18:57:33.794Z,20.50
2018-02-24T19:00:03.098Z,20.50
2018-02-24T19:02:31.358Z,20.50
2018-02-24T19:04:59.701Z,20.50
2018-02-24T19:07:27.197Z,20.50
2018-02-24T19:09:55.492Z,20.50
2018-02-24T19:12:23.025Z,20.40
2018-02-24T19:14:51.289Z,20.50
2018-02-24T19:17:18.820Z,20.40
2018-02-24T19:19:46.385Z,20.40
2018-02-24T19:22:13.893Z,20.50
2018-02-24T19:24:42.178Z,20.40
2018-02-24T19:27:09.698Z,20.40
2018-02-24T19:29:38.925Z,20.40
2018-02-24T19:32:07.219Z,20.40
2018-02-24T19:34:34.749Z,20.40
2018-02-24T19:37:03.942Z,20.40
2018-02-24T19:39:32.229Z,20.40
2018-02-24T19:41:59.750Z,20.40
2018-02-24T19:44:27.257Z,20.40
2018-02-24T19:46:54.785Z,20.40
2018-02-24T19:49:23.049Z,20.40
2018-02-24T19:51:52.309Z,20.40
2018-02-24T19:54:19.830Z,20.30
2018-02-24T19:56:47.349Z,20.40
2018-02-24T19:59:14.853Z,20.40
2018-02-24T20:01:44.353Z,20.40
2018-02-24T20:04:11.851Z,20.40
2018-02-24T20:06:39.595Z,20.40
2018-02-24T20:09:07.117Z,20.30
2018-02-24T20:11:36.321Z,20.40
2018-02-24T20:14:03.853Z,20.30
2018-02-24T20:16:32.117Z,20.30
2018-02-24T20:18:59.641Z,20.30
2018-02-24T20:21:27.150Z,20.30
2018-02-24T20:23:57.421Z,20.30
2018-02-24T20:26:24.933Z,20.30
2018-02-24T20:28:53.203Z,20.30
2018-02-24T20:31:21.496Z,20.30
2018-02-24T20:33:49.810Z,20.30
2018-02-24T20:36:17.333Z,20.30
2018-02-24T20:38:44.873Z,20.30
2018-02-24T20:41:13.157Z,20.30
2018-02-24T20:43:41.428Z,20.30
2018-02-24T20:46:12.731Z,20.30
2018-02-24T20:48:40.278Z,20.30
2018-02-24T20:51:07.781Z,20.30
2018-02-24T20:53:36.065Z,20.30
2018-02-24T20:56:04.337Z,20.30
2018-02-24T20:58:32.628Z,20.30
2018-02-24T21:01:00.168Z,20.30
2018-02-24T21:03:27.708Z,20.30
2018-02-24T21:05:55.205Z,20.30
2018-02-24T21:08:22.737Z,20.30
2018-02-24T21:10:51.936Z,20.30
2018-02-24T21:13:20.208Z,20.30
2018-02-24T21:15:48.497Z,20.30
2018-02-24T21:18:16.762Z,20.30
2018-02-24T21:20:45.045Z,20.30
2018-02-24T21:23:13.308Z,20.30
2018-02-24T21:25:42.346Z,20.30
2018-02-24T21:28:09.849Z,20.30
2018-02-24T21:30:38.117Z,20.30
2018-02-24T21:33:05.638Z,20.30
2018-02-24T21:35:33.137Z,20.30
2018-02-24T21:38:03.409Z,20.30
2018-02-24T21:40:30.905Z,20.30
2018-02-24T21:42:58.422Z,20.30
2018-02-24T21:45:25.917Z,20.30
2018-02-24T21:47:53.413Z,20.30
2018-02-24T21:50:21.011Z,20.30
2018-02-24T21:52:48.524Z,20.30
2018-02-24T21:55:16.808Z,20.30
2018-02-24T21:57:44.337Z,20.30
2018-02-24T22:00:12.609Z,20.30
2018-02-24T22:02:40.900Z,20.30
2018-02-24T22:05:09.187Z,20.30
2018-02-24T22:07:36.713Z,20.30
2018-02-24T22:10:04.533Z,20.30
2018-02-24T22:12:32.111Z,20.30
2018-02-24T22:14:59.620Z,20.30
2018-02-24T22:17:27.912Z,20.30
2018-02-24T22:19:55.404Z,20.30
2018-02-24T22:22:22.937Z,20.40
2018-02-24T22:24:50.461Z,20.40
2018-02-24T22:27:18.732Z,20.40
2018-02-24T22:29:47.026Z,20.40
2018-02-24T22:32:14.526Z,20.40
2018-02-24T22:34:42.050Z,20.40
2018-02-24T22:37:09.553Z,20.40
2018-02-24T22:39:37.081Z,20.40
2018-02-24T22:42:04.608Z,20.40
2018-02-24T22:44:33.069Z,20.50
2018-02-24T22:47:01.360Z,20.50
2018-02-24T22:49:29.621Z,20.50
2018-02-24T22:51:57.912Z,20.50
2018-02-24T22:54:25.474Z,20.40
2018-02-24T22:56:55.732Z,20.50
2018-02-24T22:59:23.233Z,20.50
2018-02-24T23:01:51.521Z,20.50
2018-02-24T23:04:19.017Z,20.50
2018-02-24T23:06:47.467Z,20.50
2018-02-24T23:09:14.990Z,20.50
2018-02-24T23:11:43.257Z,20.50
2018-02-24T23:14:10.777Z,20.50
2018-02-24T23:16:39.225Z,20.60
2018-02-24T23:19:07.489Z,20.60
2018-02-24T23:21:35.793Z,20.60
2018-02-24T23:24:03.289Z,20.60
2018-02-24T23:26:30.810Z,20.60
2018-02-24T23:28:58.308Z,20.60
2018-02-24T23:31:25.826Z,20.60
2018-02-24T23:33:54.297Z,20.60
2018-02-24T23:36:21.808Z,20.60
2018-02-24T23:38:49.330Z,20.60
2018-02-24T23:41:16.834Z,20.60
2018-02-24T23:43:45.124Z,20.70
2018-02-24T23:46:13.440Z,20.60
2018-02-24T23:48:42.918Z,20.60
2018-02-24T23:51:10.441Z,20.70
2018-02-24T23:53:38.422Z,20.70
2018-02-24T23:56:06.714Z,20.70
2018-02-24T23:58:34.213Z,20.70
